Terminal Aerodrome Forecast
Issued by NWS Tuscon, AZ

Home | Current Version | Previous Version | Text Only | Print | Product List | Glossary On
Versions: 1 2 3 4 5 6 7 8 9 10 11 12
264
FTUS45 KTWC 082320
TAFDUG
TAF
KDUG 082320Z 0900/0924 05005KT P6SM SKC
     FM090800 VRB04KT P6SM FEW220
     FM091700 01006KT P6SM SCT220
     FM092100 10005KT P6SM SCT250=

USA.gov is the U.S. government's official web portal to all federal, state and local government web resources and services.